Time;durP1;ratioP1;P1;durP2;ratioP2;P2;SDS_P1;SDS_P2;PMS_P1;PMS_P2;Temp;Humidity;BMP_temperature;BMP_pressure;BME280_temperature;BME280_humidity;BME280_pressure;Samples;Min_cycle;Max_cycle;Signal;HPM_P1;HPM_P2
2021/12/04 00:00:55;;;;;;;3.20;1.60;;;;;;;3.02;100.00;99029.25;5066123;28;20074;-58
2021/12/04 00:03:21;;;;;;;3.03;1.40;;;;;;;3.04;100.00;99027.41;5086601;28;20068;-59
2021/12/04 00:05:51;;;;;;;3.75;1.85;;;;;;;3.05;100.00;99023.91;5085156;28;20035;-59
2021/12/04 00:08:16;;;;;;;2.88;1.45;;;;;;;3.02;100.00;99007.63;5078988;28;20874;-59
2021/12/04 00:10:42;;;;;;;2.85;1.60;;;;;;;3.06;100.00;99004.84;5080599;28;20027;-58
2021/12/04 00:13:07;;;;;;;3.55;2.00;;;;;;;3.07;100.00;98998.78;5079336;28;20130;-58
2021/12/04 00:15:33;;;;;;;3.92;1.85;;;;;;;3.03;100.00;98989.41;5079610;28;20035;-59
2021/12/04 00:18:00;;;;;;;3.30;2.13;;;;;;;3.03;100.00;98979.03;5077690;28;20050;-58
2021/12/04 00:20:30;;;;;;;3.45;1.95;;;;;;;3.03;100.00;98962.63;5068519;28;20047;-59
2021/12/04 00:22:58;;;;;;;3.28;1.83;;;;;;;3.03;100.00;98968.66;5078206;28;20057;-59
2021/12/04 00:25:24;;;;;;;3.10;1.70;;;;;;;2.98;100.00;98955.03;5092604;28;20034;-59
2021/12/04 00:27:49;;;;;;;2.92;1.70;;;;;;;3.00;100.00;98953.25;5069878;28;20035;-59
2021/12/04 00:30:14;;;;;;;3.40;1.73;;;;;;;3.02;100.00;98961.78;5086886;28;20039;-59
2021/12/04 00:32:41;;;;;;;3.50;1.70;;;;;;;3.01;100.00;98960.09;5077879;28;20040;-59
2021/12/04 00:35:21;;;;;;;3.15;1.77;;;;;;;3.01;100.00;98964.44;5087418;27;20041;-59
2021/12/04 00:51:12;;;;;;;3.60;2.20;;;;;;;3.04;100.00;98935.78;5081242;28;20281;-59
2021/12/04 00:53:37;;;;;;;3.30;1.92;;;;;;;2.62;100.00;98863.25;5085155;27;20724;-59
2021/12/04 00:56:03;;;;;;;4.22;2.10;;;;;;;3.05;100.00;98925.31;5090969;27;20032;-59
2021/12/04 00:58:28;;;;;;;3.53;2.08;;;;;;;2.92;100.00;98905.16;5080340;28;20150;-59
2021/12/04 01:00:54;;;;;;;9.35;2.15;;;;;;;3.06;100.00;98915.78;5056635;28;20054;-59
2021/12/04 01:03:19;;;;;;;4.38;2.17;;;;;;;3.07;100.00;98905.38;5089013;27;20188;-59
2021/12/04 01:05:45;;;;;;;3.08;1.75;;;;;;;3.09;100.00;98910.47;5068773;27;20035;-59
2021/12/04 01:08:10;;;;;;;3.03;1.52;;;;;;;3.07;100.00;98902.78;5088152;27;20035;-59
2021/12/04 01:10:36;;;;;;;3.53;1.55;;;;;;;3.07;100.00;98907.97;5089617;27;20884;-58
2021/12/04 01:13:04;;;;;;;3.92;1.98;;;;;;;3.08;100.00;98896.66;5095569;27;20032;-58
2021/12/04 01:15:29;;;;;;;3.15;1.83;;;;;;;2.97;100.00;98865.13;5082220;27;20189;-59
2021/12/04 01:17:55;;;;;;;3.40;1.95;;;;;;;3.08;100.00;98883.69;5093928;27;20035;-58
2021/12/04 01:20:20;;;;;;;4.50;1.60;;;;;;;3.07;100.00;98884.63;5063883;27;20035;-59
2021/12/04 01:22:46;;;;;;;2.70;1.50;;;;;;;3.10;100.00;98881.03;5088455;27;20039;-59
2021/12/04 01:25:11;;;;;;;2.75;1.40;;;;;;;3.09;100.00;98894.91;5067655;27;20878;-58
2021/12/04 01:27:37;;;;;;;2.47;1.38;;;;;;;3.12;100.00;98904.28;5082353;28;20098;-59
2021/12/04 01:30:04;;;;;;;2.60;1.58;;;;;;;3.12;100.00;98896.50;5081770;28;20918;-59
2021/12/04 01:32:29;;;;;;;2.67;1.35;;;;;;;3.13;100.00;98900.81;5067994;28;20058;-59
2021/12/04 01:34:55;;;;;;;2.65;1.30;;;;;;;3.12;100.00;98915.53;5083878;28;20799;-59
2021/12/04 01:37:20;;;;;;;2.60;1.27;;;;;;;3.15;100.00;98910.19;5096191;27;20031;-59
2021/12/04 01:39:46;;;;;;;3.00;1.40;;;;;;;3.19;100.00;98910.91;5058294;28;20869;-59
2021/12/04 01:42:11;;;;;;;2.22;1.02;;;;;;;3.19;100.00;98905.72;5072185;28;20032;-58
2021/12/04 01:44:36;;;;;;;2.90;1.38;;;;;;;3.01;100.00;98871.88;5064937;28;20059;-59
2021/12/04 01:47:13;;;;;;;2.60;1.38;;;;;;;3.12;100.00;98893.91;5061071;28;20035;-59
2021/12/04 01:49:39;;;;;;;2.45;1.40;;;;;;;3.17;100.00;98908.41;5095651;27;20137;-59
2021/12/04 01:52:04;;;;;;;3.55;1.55;;;;;;;3.18;100.00;98906.66;5098342;27;20043;-59
2021/12/04 01:54:30;;;;;;;3.53;1.50;;;;;;;3.17;100.00;98903.19;5049244;28;20027;-59
2021/12/04 01:56:55;;;;;;;5.20;1.90;;;;;;;3.08;100.00;98883.69;5059262;28;20031;-59
2021/12/04 01:59:21;;;;;;;3.05;1.15;;;;;;;3.21;100.00;98896.13;5091358;27;20112;-59
2021/12/04 02:01:46;;;;;;;2.33;1.05;;;;;;;3.22;100.00;98890.84;5093871;27;20088;-58
2021/12/04 02:04:12;;;;;;;3.92;1.27;;;;;;;3.24;100.00;98890.78;5061378;28;20108;-58
2021/12/04 02:06:38;;;;;;;2.67;1.23;;;;;;;3.23;100.00;98891.69;5076986;28;20886;-58
2021/12/04 02:09:03;;;;;;;3.10;1.30;;;;;;;3.22;100.00;98888.25;5080158;27;20201;-58
2021/12/04 02:11:29;;;;;;;2.60;1.20;;;;;;;3.24;100.00;98889.03;5090234;27;20869;-59
2021/12/04 02:13:54;;;;;;;2.92;1.10;;;;;;;3.24;100.00;98895.97;5095778;27;20053;-59
2021/12/04 02:16:22;;;;;;;3.38;1.33;;;;;;;3.23;100.00;98892.53;5088265;27;20042;-59
2021/12/04 02:18:48;;;;;;;2.92;1.30;;;;;;;3.16;100.00;98879.91;5097048;27;20035;-59
2021/12/04 02:21:14;;;;;;;3.47;1.42;;;;;;;3.26;100.00;98886.38;5096747;27;20039;-58
2021/12/04 02:23:40;;;;;;;3.08;1.38;;;;;;;3.23;100.00;98881.31;5080296;27;20126;-58
2021/12/04 02:26:05;;;;;;;2.05;1.17;;;;;;;3.27;100.00;98882.88;5082929;27;20844;-59
2021/12/04 02:28:31;;;;;;;2.25;1.23;;;;;;;3.29;100.00;98881.03;5088835;27;20031;-58
2021/12/04 02:30:56;;;;;;;2.22;1.20;;;;;;;3.27;100.00;98864.69;5088523;27;20205;-59
2021/12/04 02:33:22;;;;;;;2.67;1.20;;;;;;;3.29;100.00;98860.28;5069208;28;20843;-58
2021/12/04 02:35:50;;;;;;;2.45;1.08;;;;;;;3.30;100.00;98856.78;5099795;27;20019;-58
2021/12/04 02:38:17;;;;;;;2.20;1.17;;;;;;;3.29;100.00;98852.47;5103385;27;20103;-58
2021/12/04 02:40:43;;;;;;;3.15;1.30;;;;;;;2.83;100.00;98778.50;5099724;27;20035;-58
2021/12/04 02:43:10;;;;;;;2.35;1.00;;;;;;;3.28;100.00;98845.63;5081225;27;20905;-58
2021/12/04 02:45:35;;;;;;;2.72;1.30;;;;;;;2.95;100.00;98783.97;5083805;27;20868;-58
2021/12/04 02:48:01;;;;;;;2.65;1.30;;;;;;;3.29;100.00;98837.75;5094079;27;20027;-58
2021/12/04 02:50:26;;;;;;;3.30;1.73;;;;;;;3.28;100.00;98832.66;5079892;28;20038;-59
2021/12/04 02:52:52;;;;;;;2.22;1.30;;;;;;;3.27;100.00;98824.03;5094713;27;20103;-59
2021/12/04 02:55:18;;;;;;;2.10;1.27;;;;;;;3.27;100.00;98821.44;5091359;27;20092;-58
2021/12/04 02:57:44;;;;;;;2.10;1.20;;;;;;;3.26;100.00;98814.53;5070205;27;20028;-58
2021/12/04 03:00:14;;;;;;;2.45;1.38;;;;;;;3.27;100.00;98805.84;5076722;28;20027;-58
2021/12/04 03:02:40;;;;;;;2.10;1.05;;;;;;;3.28;100.00;98796.31;5072324;28;20449;-58
2021/12/04 03:05:08;;;;;;;2.47;1.27;;;;;;;3.28;100.00;98796.31;5095908;27;20122;-59
2021/12/04 03:07:34;;;;;;;2.95;1.10;;;;;;;3.29;100.00;98813.56;5087338;27;20491;-59
2021/12/04 03:09:59;;;;;;;3.30;1.40;;;;;;;2.77;100.00;98719.16;5075639;27;20036;-58
2021/12/04 03:12:25;;;;;;;2.90;1.52;;;;;;;3.26;100.00;98793.78;5087625;27;20734;-59
2021/12/04 03:14:51;;;;;;;4.50;1.50;;;;;;;3.28;100.00;98785.94;5090737;27;20046;-58
2021/12/04 03:17:20;;;;;;;3.55;1.40;;;;;;;3.30;100.00;98795.34;5064040;27;20126;-59
2021/12/04 03:19:45;;;;;;;3.00;1.60;;;;;;;2.93;100.00;98728.75;5075883;28;20023;-59
2021/12/04 03:22:11;;;;;;;2.25;1.23;;;;;;;3.31;100.00;98793.59;5077744;28;20887;-59
2021/12/04 03:24:40;;;;;;;2.00;1.05;;;;;;;3.31;100.00;98791.00;5096108;27;20081;-59
2021/12/04 03:27:06;;;;;;;2.92;1.35;;;;;;;3.30;100.00;98795.34;5097404;27;20105;-58
2021/12/04 03:29:33;;;;;;;2.50;1.27;;;;;;;3.32;100.00;98779.66;5082641;27;20552;-58
2021/12/04 03:42:30;;;;;;;2.50;1.10;;;;;;;3.32;100.00;98771.88;5075966;28;20039;-59
2021/12/04 03:44:55;;;;;;;2.55;1.10;;;;;;;3.32;100.00;98771.88;5061944;28;20032;-59
2021/12/04 03:47:21;;;;;;;2.65;1.13;;;;;;;3.31;100.00;98767.63;5083399;28;20028;-59
2021/12/04 03:49:48;;;;;;;2.67;1.20;;;;;;;3.14;100.00;98746.81;5069388;28;20119;-59
2021/12/04 03:52:14;;;;;;;2.15;1.08;;;;;;;3.33;100.00;98768.38;5094469;28;20031;-58
2021/12/04 03:54:40;;;;;;;2.45;0.90;;;;;;;3.34;100.00;98768.31;5086075;28;20046;-59
2021/12/04 03:57:06;;;;;;;2.72;1.10;;;;;;;3.36;100.00;98763.03;5085390;28;20095;-59
2021/12/04 03:59:38;;;;;;;2.10;1.02;;;;;;;3.38;100.00;98761.25;5055294;28;20135;-59
2021/12/04 04:02:07;;;;;;;5.28;1.33;;;;;;;3.39;100.00;98758.56;5068984;28;20851;-59
2021/12/04 04:04:33;;;;;;;1.63;0.88;;;;;;;3.38;100.00;98748.25;5073737;28;20490;-59
2021/12/04 04:07:01;;;;;;;2.13;1.13;;;;;;;3.41;100.00;98748.09;5078346;28;20128;-59
2021/12/04 04:09:29;;;;;;;1.30;0.70;;;;;;;3.42;100.00;98744.56;5068704;27;20035;-59
2021/12/04 04:11:55;;;;;;;1.85;0.80;;;;;;;3.40;100.00;98736.88;5065610;28;20134;-58
2021/12/04 04:14:22;;;;;;;4.07;0.80;;;;;;;3.41;100.00;98735.94;5079931;28;20143;-58
2021/12/04 04:16:47;;;;;;;2.35;0.70;;;;;;;3.40;100.00;98741.22;5079555;27;20035;-58
2021/12/04 04:19:13;;;;;;;2.03;0.70;;;;;;;3.39;100.00;98737.78;5078186;27;20544;-58
2021/12/04 04:21:40;;;;;;;1.88;0.90;;;;;;;3.39;100.00;98742.13;5099421;27;20031;-58
2021/12/04 04:24:17;;;;;;;1.70;0.70;;;;;;;3.37;100.00;98742.22;5080508;28;20905;-59
2021/12/04 04:26:44;;;;;;;2.42;0.80;;;;;;;2.91;100.00;98670.03;5066887;27;20040;-58
2021/12/04 04:29:10;;;;;;;4.22;1.00;;;;;;;3.37;100.00;98749.16;5077228;28;20632;-58
2021/12/04 04:31:43;;;;;;;2.38;0.85;;;;;;;3.38;100.00;98750.84;5068218;28;20064;-58
2021/12/04 04:34:09;;;;;;;2.53;1.00;;;;;;;3.39;100.00;98747.31;5081059;27;20028;-58
2021/12/04 05:11:56;;;;;;;1.73;0.73;;;;;;;3.51;100.00;98720.78;5022326;28;21111;-59
2021/12/04 05:14:21;;;;;;;1.75;0.65;;;;;;;3.52;100.00;98710.31;5094267;27;20035;-59
2021/12/04 05:16:51;;;;;;;1.95;0.85;;;;;;;3.53;100.00;98719.78;5072624;28;20024;-59
2021/12/04 05:19:38;;;;;;;1.80;0.90;;;;;;;3.55;100.00;98717.09;5078027;28;20027;-59
2021/12/04 05:22:05;;;;;;;2.42;0.95;;;;;;;3.55;100.00;98722.28;5078142;28;20266;-59
2021/12/04 05:24:30;;;;;;;2.67;1.30;;;;;;;3.57;100.00;98717.88;5091285;27;20899;-58
2021/12/04 05:26:55;;;;;;;1.77;1.00;;;;;;;3.56;100.00;98714.44;5073421;27;20102;-58
2021/12/04 05:29:21;;;;;;;4.95;1.20;;;;;;;3.56;100.00;98711.00;5085890;27;20036;-58
2021/12/04 05:31:46;;;;;;;1.92;1.05;;;;;;;3.56;100.00;98703.22;5065762;28;20028;-59
2021/12/04 05:34:12;;;;;;;1.65;0.82;;;;;;;3.55;100.00;98702.38;5091395;27;20027;-58
2021/12/04 05:36:37;;;;;;;2.20;0.80;;;;;;;3.57;100.00;98697.97;5078690;28;20031;-58
2021/12/04 05:39:03;;;;;;;1.42;0.60;;;;;;;3.55;100.00;98698.94;5077991;28;20565;-58
2021/12/04 05:41:29;;;;;;;1.67;0.77;;;;;;;3.56;100.00;98695.44;5078217;28;20086;-59
2021/12/04 05:43:54;;;;;;;2.85;0.90;;;;;;;3.54;100.00;98689.47;5079216;28;20031;-59
2021/12/04 05:46:27;;;;;;;3.10;1.10;;;;;;;3.51;100.00;98687.03;5083876;27;20027;-59
2021/12/04 05:49:03;;;;;;;2.05;0.70;;;;;;;3.50;100.00;98688.78;5081807;27;20103;-58
2021/12/04 05:54:19;;;;;;;1.65;0.70;;;;;;;3.47;100.00;98682.91;5077081;28;20894;-59
2021/12/04 05:56:44;;;;;;;1.88;0.90;;;;;;;3.46;100.00;98676.88;5095735;27;20035;-58
2021/12/04 05:59:10;;;;;;;2.30;0.95;;;;;;;3.45;100.00;98679.53;5097737;27;20868;-59
2021/12/04 06:01:35;;;;;;;1.92;0.95;;;;;;;3.42;100.00;98675.34;5080260;27;20024;-58
2021/12/04 06:04:00;;;;;;;1.77;0.80;;;;;;;3.42;100.00;98679.69;5088088;27;20942;-58
2021/12/04 06:06:26;;;;;;;2.70;0.90;;;;;;;3.41;100.00;98678.84;5094967;27;20469;-59
2021/12/04 06:08:52;;;;;;;2.55;0.95;;;;;;;3.40;100.00;98677.19;5083370;27;20057;-59
2021/12/04 06:11:18;;;;;;;1.88;0.90;;;;;;;3.42;100.00;98674.50;5096894;27;20038;-59
2021/12/04 06:13:43;;;;;;;2.35;1.00;;;;;;;3.42;100.00;98664.94;5096404;27;20031;-58
2021/12/04 06:16:09;;;;;;;2.55;1.30;;;;;;;3.42;100.00;98669.28;5074148;27;20092;-59
2021/12/04 06:18:34;;;;;;;2.58;0.85;;;;;;;3.41;100.00;98667.63;5080118;27;20031;-59
2021/12/04 06:23:44;;;;;;;1.67;0.85;;;;;;;3.41;100.00;98678.84;5096480;27;20053;-59
2021/12/04 06:26:10;;;;;;;2.67;1.08;;;;;;;3.44;100.00;98683.06;5097605;27;20031;-58
2021/12/04 06:28:35;;;;;;;1.52;0.68;;;;;;;2.95;100.00;98602.41;5081340;27;20023;-59
2021/12/04 06:31:01;;;;;;;1.55;0.77;;;;;;;3.43;100.00;98676.19;5082290;27;20044;-59
2021/12/04 06:33:28;;;;;;;2.88;1.17;;;;;;;3.42;100.00;98674.50;5082955;27;20259;-59
2021/12/04 06:35:53;;;;;;;2.53;1.02;;;;;;;3.39;100.00;98669.44;5073525;27;20070;-58
2021/12/04 06:38:19;;;;;;;1.73;0.68;;;;;;;3.42;100.00;98677.94;5085977;27;20081;-59
2021/12/04 06:40:46;;;;;;;2.10;0.88;;;;;;;3.42;100.00;98685.72;5058305;28;20085;-59
2021/12/04 06:43:12;;;;;;;1.42;0.68;;;;;;;3.42;100.00;98677.09;5065066;27;20087;-57
2021/12/04 06:45:41;;;;;;;1.85;0.82;;;;;;;3.43;100.00;98683.97;5076503;28;20758;-57
2021/12/04 06:48:17;;;;;;;1.35;0.57;;;;;;;3.43;100.00;98681.38;5078306;28;20034;-58
2021/12/04 06:55:49;;;;;;;1.95;0.70;;;;;;;3.45;100.00;98689.91;5085542;27;20824;-58
2021/12/04 06:58:16;;;;;;;1.42;0.80;;;;;;;3.44;100.00;98686.50;5045705;27;20180;-58
2021/12/04 07:00:42;;;;;;;1.85;0.82;;;;;;;3.46;100.00;98687.25;5074779;28;20028;-57
2021/12/04 07:03:07;;;;;;;2.00;1.10;;;;;;;3.46;100.00;98683.81;5063701;28;20903;-60
2021/12/04 07:05:33;;;;;;;1.85;0.80;;;;;;;3.47;100.00;98688.09;5081719;27;20023;-57
2021/12/04 07:07:58;;;;;;;1.85;0.90;;;;;;;3.46;100.00;98686.41;5097239;27;20035;-57
2021/12/04 07:10:24;;;;;;;1.42;0.82;;;;;;;3.46;100.00;98683.81;5082575;27;20070;-57
2021/12/04 07:12:50;;;;;;;2.03;0.93;;;;;;;3.46;100.00;98689.00;5099034;27;20052;-57
2021/12/04 07:15:15;;;;;;;2.38;1.05;;;;;;;3.18;100.00;98642.78;5069908;27;20027;-58
2021/12/04 07:17:41;;;;;;;2.17;0.93;;;;;;;3.48;100.00;98689.78;5090862;27;20753;-58
2021/12/04 07:20:08;;;;;;;1.98;0.95;;;;;;;3.50;100.00;98695.72;5075779;28;20039;-58
2021/12/04 07:22:34;;;;;;;1.65;0.82;;;;;;;3.49;100.00;98694.88;5089618;27;20037;-58
2021/12/04 07:24:59;;;;;;;1.92;0.90;;;;;;;3.51;100.00;98700.03;5093129;27;20733;-58
2021/12/04 07:27:27;;;;;;;2.78;1.00;;;;;;;3.51;100.00;98700.88;5077070;28;20043;-58
2021/12/04 07:29:53;;;;;;;2.13;0.90;;;;;;;3.52;100.00;98696.50;5092689;27;20052;-58
2021/12/04 07:32:18;;;;;;;1.70;0.80;;;;;;;3.51;100.00;98692.22;5069848;28;20031;-58
2021/12/04 07:34:44;;;;;;;2.13;1.00;;;;;;;3.52;100.00;98683.50;5077753;27;20036;-58
2021/12/04 07:37:09;;;;;;;2.20;1.00;;;;;;;3.53;100.00;98682.59;5068461;28;20042;-58
2021/12/04 07:39:34;;;;;;;3.70;1.27;;;;;;;3.57;100.00;98684.13;5080572;28;20084;-58
2021/12/04 07:42:00;;;;;;;2.67;1.35;;;;;;;3.57;100.00;98684.13;5066834;28;20030;-58
2021/12/04 07:44:25;;;;;;;6.30;1.42;;;;;;;3.57;100.00;98677.19;5062501;28;20063;-58
2021/12/04 07:46:50;;;;;;;3.70;1.85;;;;;;;3.57;100.00;98674.59;5069975;28;20038;-58
2021/12/04 07:49:16;;;;;;;3.15;1.75;;;;;;;3.47;100.00;98662.13;5087130;28;20027;-58
2021/12/04 07:51:43;;;;;;;3.15;2.00;;;;;;;3.50;100.00;98657.63;5067201;28;20121;-58
2021/12/04 07:54:09;;;;;;;3.03;1.52;;;;;;;3.62;100.00;98663.97;5073476;28;20054;-58
2021/12/04 07:56:34;;;;;;;3.45;1.90;;;;;;;3.63;100.00;98663.06;5081000;28;20298;-58
2021/12/04 07:59:00;;;;;;;3.42;2.20;;;;;;;3.68;100.00;98665.44;5067802;28;20822;-59
2021/12/04 08:01:25;;;;;;;5.32;1.80;;;;;;;3.71;100.00;98662.69;5065546;28;20039;-59
2021/12/04 08:03:51;;;;;;;2.92;1.52;;;;;;;3.71;100.00;98660.91;5066667;28;20055;-59
2021/12/04 08:06:16;;;;;;;3.58;1.58;;;;;;;3.75;100.00;98657.22;5047472;28;20059;-59
2021/12/04 08:08:43;;;;;;;2.20;1.40;;;;;;;3.74;100.00;98663.34;5066325;28;20023;-59
2021/12/04 08:11:08;;;;;;;2.30;1.30;;;;;;;3.54;100.00;98629.78;5064599;28;20032;-57
2021/12/04 08:13:33;;;;;;;2.65;1.30;;;;;;;3.81;100.00;98672.53;5071535;28;20104;-58
2021/12/04 08:15:59;;;;;;;2.42;1.40;;;;;;;3.67;100.00;98651.59;5077208;28;20500;-58
2021/12/04 08:18:25;;;;;;;2.95;1.50;;;;;;;3.82;100.00;98673.38;5048820;28;20027;-58
2021/12/04 08:20:51;;;;;;;3.03;1.52;;;;;;;3.88;100.00;98671.31;5068952;28;20349;-57
2021/12/04 08:23:17;;;;;;;2.58;1.48;;;;;;;3.92;100.00;98670.19;5062421;28;20143;-57
2021/12/04 08:25:43;;;;;;;2.67;1.58;;;;;;;3.94;100.00;98658.00;5066559;28;20221;-57
2021/12/04 08:28:09;;;;;;;2.63;1.35;;;;;;;3.93;100.00;98645.06;5065791;28;20946;-58
2021/12/04 08:30:39;;;;;;;3.53;1.85;;;;;;;4.07;100.00;98661.63;5066236;28;20959;-57
2021/12/04 08:33:04;;;;;;;3.42;1.75;;;;;;;4.18;100.00;98661.06;5066744;28;20085;-57
2021/12/04 08:35:35;;;;;;;10.13;2.03;;;;;;;4.28;100.00;98651.88;5066583;28;20031;-57
2021/12/04 08:38:01;;;;;;;3.58;2.22;;;;;;;4.33;100.00;98646.41;5066525;28;20024;-57
2021/12/04 08:40:28;;;;;;;3.42;1.98;;;;;;;4.38;100.00;98647.88;5066106;28;20036;-57
2021/12/04 08:42:55;;;;;;;3.70;2.00;;;;;;;3.97;100.00;98563.44;5064430;28;20236;-58
2021/12/04 08:45:21;;;;;;;3.80;2.40;;;;;;;4.46;100.00;98635.28;5077084;28;20083;-57
2021/12/04 08:47:46;;;;;;;3.10;1.90;;;;;;;4.48;100.00;98627.41;5063969;28;20872;-57
2021/12/04 08:50:17;;;;;;;3.20;2.00;;;;;;;4.49;100.00;98613.50;5046237;28;20055;-58
2021/12/04 08:52:43;;;;;;;3.22;2.30;;;;;;;4.48;100.00;98598.81;5060444;27;20035;-57
2021/12/04 08:55:09;;;;;;;4.57;2.40;;;;;;;4.48;100.00;98591.00;5083520;27;20058;-57
2021/12/04 08:57:34;;;;;;;3.35;2.20;;;;;;;4.43;100.00;98583.44;5075081;27;20020;-58
2021/12/04 09:00:00;;;;;;;3.65;2.00;;;;;;;4.48;100.00;98585.81;5059719;28;20035;-58
2021/12/04 09:02:25;;;;;;;3.50;2.22;;;;;;;4.53;100.00;98588.97;5055416;28;20947;-58
2021/12/04 09:04:51;;;;;;;7.30;2.95;;;;;;;4.57;100.00;98608.69;5054091;27;20028;-58
2021/12/04 09:07:18;;;;;;;4.88;2.80;;;;;;;4.60;100.00;98616.31;5080405;27;20249;-58
2021/12/04 09:09:45;;;;;;;3.75;2.35;;;;;;;4.62;100.00;98609.31;5068759;27;20028;-58
2021/12/04 09:12:11;;;;;;;4.20;3.00;;;;;;;4.63;100.00;98616.16;5067283;28;20023;-58
2021/12/04 09:14:38;;;;;;;5.40;3.08;;;;;;;4.60;100.00;98611.97;5049410;28;20122;-57
2021/12/04 09:17:07;;;;;;;4.63;3.10;;;;;;;4.55;100.00;98605.34;5076277;27;20902;-57
2021/12/04 09:19:32;;;;;;;3.78;2.60;;;;;;;4.48;100.00;98606.59;5082938;27;20028;-58
2021/12/04 09:21:58;;;;;;;4.03;2.60;;;;;;;4.24;100.00;98561.97;5069994;27;20084;-57
2021/12/04 09:24:27;;;;;;;4.40;2.92;;;;;;;4.46;100.00;98587.66;5080142;27;20551;-58
2021/12/04 09:27:10;;;;;;;4.90;2.75;;;;;;;4.60;100.00;98577.31;5067124;28;20028;-57
2021/12/04 09:29:58;;;;;;;4.20;3.17;;;;;;;4.82;100.00;98570.00;5067237;28;20049;-57
2021/12/04 09:32:49;;;;;;;4.72;3.65;;;;;;;4.93;100.00;98552.03;5053374;28;21000;-57
2021/12/04 10:02:20;;;;;;;6.25;3.90;;;;;;;4.92;100.00;98526.94;5060524;28;20040;-58
2021/12/04 10:24:23;;;;;;;5.03;3.40;;;;;;;4.54;100.00;98497.88;5066315;27;20051;-57
2021/12/04 10:32:35;;;;;;;5.80;4.25;;;;;;;5.13;100.00;98494.47;5064306;27;20189;-57
2021/12/04 10:35:06;;;;;;;7.03;4.47;;;;;;;5.37;100.00;98522.59;5059826;27;20910;-57
2021/12/04 10:37:32;;;;;;;4.55;3.78;;;;;;;5.40;100.00;98525.84;5073388;27;20032;-57
2021/12/04 10:40:05;;;;;;;7.35;5.03;;;;;;;5.41;100.00;98506.66;5065494;28;20035;-57
2021/12/04 10:43:01;;;;;;;6.55;5.05;;;;;;;5.50;100.00;98489.66;5064223;27;20056;-58
2021/12/04 10:45:36;;;;;;;8.20;5.80;;;;;;;5.67;100.00;98486.88;5052102;28;20043;-58
2021/12/04 10:48:09;;;;;;;8.85;6.15;;;;;;;5.81;100.00;98486.88;5062315;28;20086;-58
2021/12/04 10:50:42;;;;;;;11.30;6.60;;;;;;;5.94;100.00;98482.59;5056956;27;20429;-58
2021/12/04 10:53:13;;;;;;;7.50;5.00;;;;;;;5.99;100.00;98484.91;5060924;28;20283;-60
2021/12/04 10:55:48;;;;;;;7.10;5.28;;;;;;;5.97;100.00;98477.19;5061166;28;20490;-57
2021/12/04 11:01:02;;;;;;;6.47;4.05;;;;;;;5.97;100.00;98469.38;5076818;27;20051;-58
2021/12/04 11:42:28;;;;;;;8.98;4.75;;;;;;;5.03;100.00;98425.66;5078888;28;20883;-58
2021/12/04 11:44:52;;;;;;;5.88;4.00;;;;;;;4.91;100.00;98423.78;5065472;28;20151;-58
2021/12/04 11:47:18;;;;;;;8.57;5.20;;;;;;;4.84;100.00;98430.25;5090071;28;20139;-58
2021/12/04 11:49:44;;;;;;;7.10;4.57;;;;;;;4.83;100.00;98420.81;5078870;28;20027;-59
2021/12/04 11:52:14;;;;;;;6.68;4.82;;;;;;;4.82;100.00;98424.31;5063717;28;20046;-58
2021/12/04 11:55:01;;;;;;;7.97;5.20;;;;;;;4.79;100.00;98419.28;5065455;28;20067;-58
2021/12/04 11:57:35;;;;;;;8.43;5.28;;;;;;;4.75;100.00;98428.19;5066101;28;20039;-58
2021/12/04 12:00:23;;;;;;;8.48;5.30;;;;;;;4.64;100.00;98425.38;5054080;28;20028;-58
2021/12/04 12:02:50;;;;;;;7.68;6.07;;;;;;;4.39;100.00;98384.38;5066435;28;20092;-58
2021/12/04 12:05:17;;;;;;;9.20;5.88;;;;;;;4.68;100.00;98439.03;5058952;28;20019;-58
2021/12/04 12:07:54;;;;;;;13.48;6.03;;;;;;;4.66;100.00;98438.31;5059274;28;20035;-58
2021/12/04 12:10:19;;;;;;;10.63;6.07;;;;;;;4.64;100.00;98438.38;5057975;28;20063;-58
2021/12/04 12:12:47;;;;;;;15.65;7.35;;;;;;;4.65;100.00;98440.06;5079968;28;20023;-58
2021/12/04 12:15:29;;;;;;;9.70;6.50;;;;;;;4.64;100.00;98440.97;5059831;28;20062;-58
2021/12/04 12:17:55;;;;;;;9.88;6.68;;;;;;;4.64;100.00;98427.97;5065428;28;20039;-58
2021/12/04 12:20:38;;;;;;;7.53;6.00;;;;;;;4.23;100.00;98357.56;5046631;28;20027;-58
2021/12/04 12:23:06;;;;;;;12.68;7.50;;;;;;;4.67;100.00;98424.34;5050146;28;20196;-58
2021/12/04 12:34:11;;;;;;;10.05;7.07;;;;;;;4.48;100.00;98351.78;5067659;28;20043;-58
2021/12/04 12:36:36;;;;;;;11.52;7.68;;;;;;;4.81;100.00;98391.41;5082607;27;20027;-59
2021/12/04 12:39:04;;;;;;;11.10;7.72;;;;;;;4.94;100.00;98394.97;5069296;28;20059;-58
2021/12/04 12:41:34;;;;;;;10.85;6.15;;;;;;;4.91;100.00;98391.69;5068928;28;20027;-58
2021/12/04 12:44:08;;;;;;;11.50;7.10;;;;;;;4.77;100.00;98376.91;5080541;27;20104;-58
2021/12/04 12:46:37;;;;;;;10.27;6.93;;;;;;;4.83;100.00;98386.97;5076979;27;20024;-58
2021/12/04 12:49:05;;;;;;;11.57;7.28;;;;;;;4.88;100.00;98412.69;5061190;28;20327;-61
2021/12/04 12:51:34;;;;;;;13.27;7.95;;;;;;;4.79;100.00;98403.69;5081823;27;20023;-58
2021/12/04 12:54:04;;;;;;;11.60;7.75;;;;;;;4.56;100.00;98375.59;5068753;28;20390;-58
2021/12/04 12:56:34;;;;;;;8.68;6.97;;;;;;;4.66;100.00;98400.13;5058923;28;20070;-58
2021/12/04 13:13:05;;;;;;;9.85;7.25;;;;;;;4.57;100.00;98398.06;5055676;28;20062;-58
2021/12/04 13:15:31;;;;;;;13.40;8.40;;;;;;;4.56;100.00;98406.81;5056385;27;20142;-58
2021/12/04 13:18:21;;;;;;;13.30;8.02;;;;;;;4.56;100.00;98404.19;5079814;27;20027;-56
2021/12/04 13:20:47;;;;;;;13.32;8.52;;;;;;;4.56;100.00;98414.59;5070102;27;20028;-58
2021/12/04 13:23:16;;;;;;;10.93;8.18;;;;;;;4.55;100.00;98410.31;5068109;28;20496;-61
2021/12/04 13:26:09;;;;;;;12.45;8.00;;;;;;;4.53;100.00;98414.75;5071959;28;20023;-59
2021/12/04 13:28:36;;;;;;;11.48;6.75;;;;;;;4.50;100.00;98415.78;5058501;28;20035;-59
2021/12/04 13:31:02;;;;;;;11.82;8.07;;;;;;;4.48;100.00;98412.44;5067382;28;20125;-59
2021/12/04 13:33:29;;;;;;;13.10;8.43;;;;;;;4.46;100.00;98416.06;5073802;27;20015;-59
2021/12/04 13:35:54;;;;;;;12.55;8.00;;;;;;;4.46;100.00;98423.84;5037508;27;20385;-57
2021/12/04 13:38:21;;;;;;;9.93;7.18;;;;;;;4.45;100.00;98420.41;5079596;27;20027;-59
2021/12/04 13:40:49;;;;;;;9.70;7.60;;;;;;;4.29;100.00;98397.97;5070056;28;20092;-61
2021/12/04 13:43:16;;;;;;;10.98;6.65;;;;;;;3.91;100.00;98338.63;5067945;28;20036;-57
2021/12/04 13:45:42;;;;;;;12.35;7.45;;;;;;;4.41;100.00;98428.47;5049988;28;20035;-58
2021/12/04 13:48:08;;;;;;;8.88;5.80;;;;;;;4.39;100.00;98431.16;5068200;28;20175;-57
2021/12/04 13:53:06;;;;;;;9.98;6.90;;;;;;;4.40;100.00;98431.97;5068372;28;20827;-59
2021/12/04 13:55:36;;;;;;;9.93;6.68;;;;;;;4.40;100.00;98432.81;5059410;28;20043;-59
2021/12/04 13:58:03;;;;;;;8.80;6.07;;;;;;;4.41;100.00;98431.06;5052745;28;20023;-58
2021/12/04 14:00:29;;;;;;;8.20;6.38;;;;;;;4.30;100.00;98425.63;5074908;28;20039;-59
2021/12/04 14:02:54;;;;;;;9.40;7.13;;;;;;;4.38;100.00;98431.25;5073385;27;20084;-58
2021/12/04 14:05:22;;;;;;;9.60;7.60;;;;;;;4.39;100.00;98427.72;5083823;27;20867;-58
2021/12/04 14:07:59;;;;;;;10.38;7.80;;;;;;;4.15;100.00;98396.16;5063886;27;20069;-58
2021/12/04 14:10:30;;;;;;;13.80;8.05;;;;;;;4.43;100.00;98431.81;5084996;27;20032;-58
2021/12/04 14:12:57;;;;;;;10.07;7.07;;;;;;;4.16;100.00;98397.81;5081034;27;20098;-59
2021/12/04 14:15:24;;;;;;;9.98;7.40;;;;;;;4.41;100.00;98439.72;5082349;27;20090;-58
2021/12/04 14:17:51;;;;;;;9.55;7.55;;;;;;;4.44;100.00;98443.88;5083938;28;20023;-58
2021/12/04 14:20:23;;;;;;;8.80;6.88;;;;;;;4.42;100.00;98449.19;5076617;28;20044;-59
2021/12/04 14:22:52;;;;;;;9.15;6.47;;;;;;;4.43;100.00;98434.41;5089102;27;20039;-59
2021/12/04 14:25:19;;;;;;;12.30;8.20;;;;;;;4.44;100.00;98429.13;5084810;27;20027;-59
2021/12/04 14:27:45;;;;;;;14.25;7.97;;;;;;;4.45;100.00;98440.38;5102620;27;20084;-59
2021/12/04 14:30:13;;;;;;;10.80;7.65;;;;;;;4.46;100.00;98452.47;5065608;27;20038;-59
2021/12/04 14:32:40;;;;;;;16.33;7.55;;;;;;;4.46;100.00;98460.25;5063859;28;20193;-59
2021/12/04 14:35:08;;;;;;;10.27;7.30;;;;;;;4.46;100.00;98465.47;5089598;27;20027;-58
2021/12/04 14:37:36;;;;;;;12.95;8.25;;;;;;;4.44;100.00;98464.69;5088951;27;20134;-59
2021/12/04 14:40:03;;;;;;;11.57;8.80;;;;;;;4.45;100.00;98467.22;5086087;27;20031;-58
2021/12/04 14:42:30;;;;;;;12.65;8.43;;;;;;;4.44;100.00;98467.28;5083492;27;20028;-58